OIAI  Shahid Asyaee  Airport

Iran

Add Bookmark
ICAO OIAI
Type Airport
Status Operational
Latitude
32° 0' 8" N
32.002399
Longitude
49° 16' 13" E
49.270401
Local (DST + 5) UTC (GMT + 4)
Apr 2, 2015 07:37 Apr 2, 2015 03:07
Sunrise-Sunset Local UTC
Begin Civil Twilight 06:34 02:04
Sunrise 06:58 02:28
Sunset 07:34 15:04
End Civil Twilight 07:58 15:28
VFR
VFR
MVFR
MVFR
IFR
VFR
LIFR
VFR
Unknown
Unavailable

Current Weather

METAR Observed VFR
OIAI 011900Z 33002KT CAVOK 18/09 Q1005 Wed, Apr 1, 2015 @ 19:00 UTC
(8 Hours, 7 Minutes ago)
Visual Flight Rules
Wind Visibility Clouds Conditions
330° at 2 knots (4 kph) 10 km or more
  • Clear skies
  • No significant weather
Temperatures Readings Precipitation
Current Temp 18°C (64°F)
Dewpoint 9°C (48°F)
Humidity 56%
Altimeter 29.68"Hg
Sea Level Pressure 1005mb
Field Elevation 1220.47'
None Recorded

Additional weather within a 92.6km radius of OIAI

Map ICAO Location
OIAW 88.2km S (213°)
VFR
VFR
MVFR
MVFR
IFR
VFR
LIFR
VFR
Unknown
Unavailable
-
-

CheckWX.com is intended as a tool to help pilots better visualize weather data. It is not intended as a substitute for an official weather briefing obtained from a Flight Service Station. CheckWX.com does not meet the FAA requirements for an official pre-flight weather briefing. Therefore, it's important that pilots still call and obtain an official FSS pre-flight weather briefing.

© 2007-2015 CheckWX.com
03:07:36 UTC